Southern Sonoma County Latest

20 Stations

15 Minute Data
as of 9/5/26 10:38 AM PDT
Station Date Time Temp (°F) RH (%) Dew Pt (°F) Wind Spd (mph) Wind Dir (°) Wind Gust (mph) Latest Rain (In) Daily Rain (In) Daily Min Temp (°F) Daily Max Temp (°F)
Upper Rincon Valley 9/5/26 1030 65.9   5.0 60   17 51.4   2.1 1.9   0.7 SW | 219 4.9   0.3 0.00 0.00 49.0   0.2 67.3   6.0
Lower Bennett Valley 9/5/26 1030 66.6   4.5 62   11 53.4   0.3 4.6   1.5 NW | 326 7.4   3.5 0.00 0.00 40.9   6.6 67.3   4.9
Kenwood (Wildwood) 9/5/26 1030 67.1   4.3 59   14 52.4   1.5 2.6   0.7 SW | 220 5.9   1.7 0.00 0.00 45.0   7.6 67.6   4.3
Crane Creek (Ranch 62) 9/5/26 1030 64.2   1.0 72   7 54.8   1.5 0.5   0.8 NNE | 15 2.1   1.8 0.00 0.00 47.4   6.2 66.4   1.6
Rohnert Park-West (Stony Point) 9/5/26 1030 59.6   0.4 91   8 57.0   2.0 1.7   1.7 WNW | 288 5.2   5.2 0.00 0.00 44.0   6.0 59.6   0.4
Rice-Spivak Vineyard 9/5/26 1030 66.8   3.6 - - - - - - - 39.7   8.4 67.6   3.3
Cartograph Wines Base 9/5/26 1030 63.9   4.2 78   17 57.1   1.4 1.6   0.3 N | 351 4.5   1.0 0.00 0.00 48.6   1.5 63.9   3.8
Cartograph Wines Remote 9/5/26 1030 68.1   3.5 - - - - - - - 45.7   3.6 68.6   3.7
Penngrove (Asellus) 9/5/26 1030 63.2   1.6 69   13 52.7   3.2 2.8   0.0 WNW | 298 5.7   0.8 0.00 0.00 44.4   7.9 64.5   2.0
Sonoma Valley (Bedrock) 9/5/26 1030 66.2   2.6 58   10 51.1   2.0 - - - 0.00 0.00 44.4   4.3 66.8   2.5
Sonoma-West (Arnold) 9/5/26 1030 67.8   2.3 58   13 52.6   3.5 2.6   0.1 E | 83 5.2   1.1 0.00 0.00 44.2   4.6 67.8   2.2
Sonoma Valley HS 9/5/26 1030 65.1   2.2 69   15 54.6   3.2 1.6   1.8 NNE | 32 4.4   2.4 0.00 0.00 46.3   5.3 66.3   2.6
Sonoma East (Bundschu01) 9/5/26 1030 67.2   2.9 59   14 52.5   3.2 2.0   1.3 E | 99 5.5   1.3 0.00 0.00 43.5   5.9 68.0   3.3
Sonoma-SE (Napoli) 9/5/26 1030 68.0   3.6 59   22 53.1   5.2 1.8   0.0 S | 178 4.4   2.3 0.00 0.00 43.4   8.9 69.1   3.8
Schellville (Sasaki) 2/7/26 1900 53.4   2.2 88   10 49.9   1.0 3.3   1.8 SW | 225 5.8   4.0 0.00 0.00 47.0   0.8 62.8   8.4
Petaluma (Ranch 10) 9/5/26 1030 68.3   3.5 57   15 52.6   2.9 2.2   0.7 WNW | 287 5.4   1.6 0.00 0.00 45.4   9.5 68.9   3.5
Carneros (Ranch 71) 9/5/26 1030 66.1   2.4 61   14 52.4   3.1 2.8   0.3 SW | 230 6.6   0.6 0.00 0.00 52.1   1.8 66.9   2.6
Ricci Vineyards (Carneros) 9/5/26 1030 66.9   2.3 61   10 53.0   2.0 2.5   1.2 W | 265 5.0   1.8 0.00 0.00 44.5   9.1 67.7   2.9
Carneros Upper (Ranch 81) 9/5/26 1030 66.4   2.5 59   19 51.8   5.3 4.2   1.0 WSW | 249 8.4   0.0 - - 52.3   1.1 66.4   2.5
Carneros Lower (Ranch 81) 9/5/26 1030 68.7   7.5 58   57 53.3   109.7 1.1   0.0 SSE | 166 6.2   0.1 0.00 0.00 45.3   7.1 68.8   7.5
Max     68.7 91 57.1 4.6 - 8.4 0.00 0.00 52.3 69.1
Avg     66.1 64 53.3 2.3 - 5.4 0.00 - - -
Min     59.6 57 51.1 0.5 - 2.1 0.00 0.00 39.7 59.6